Tanana, AK (99777)

2:12 PM AKST on February 14, 2016 (GMT -0900)
Calhoun Memorial | | Change Station
CLOSE
Current Station
Airport
Location: Tanana,
Elevation: 220 ft
Nearby Weather Stations

Elev 220 ft 65.18 °N, 152.11 °W | Updated 20 minutes ago

Overcast
Overcast
23 °F
Feels Like 14 °F
N
8
Wind Variable Wind from ENE

Today
High -- | Low -- °F
--% Chance of Precip.
Yesterday
High -- | Low -- °F
Precip. -- in
Pressure 29.50 in
Visibility 10.0 miles
Clouds Overcast 9000 ft
Windchill 14 °F
Dew Point 11 °F
Humidity 60%
Rainfall 0.00 in
Snow Depth Not available.
9:13 AM 5:31 PM
Waxing Crescent, 46% visible
METAR PATA 142252Z 07007KT 10SM OVC090 M05/M12 A2948 RMK AO2 SLP989 T10501117
Pressure 29.50 in
Visibility 10.0 miles
Clouds Overcast 9000 ft
Windchill 14 °F
Dew Point 11 °F
Humidity 60%
Rainfall 0.00 in
Snow Depth Not available.
9:13 AM 5:31 PM
Waxing Crescent, 46% visible
METAR PATA 142252Z 07007KT 10SM OVC090 M05/M12 A2948 RMK AO2 SLP989 T10501117

10-Day Weather Forecast

Almanac

Astronomy

Feb. 14, 2016 Rise Set
Actual Time
Civil Twilight
Nautical Twilight
Astronomical Twilight
Moon
Length of Visible Light
Length of Day
Tomorrow will be .
, % of the Moon is Illuminated

Today's Extremes

State Highs State Lows

Community

WunderPhotos

Upload Photos

1,892,913 photos uploaded!

WunderBlog® & News

Nearby

Air Quality

  Air Quality AQ Index Pollutant
Not available.

Snow Depth

Station Depth Elevation

Earthquake Activity

City Distance Mag. Time & Date
Minimum magnitude displayed is 2.5.

Coastal Water Temperatures

Place Temperature

Stations

Nearby Weather Stations

Station Location Temp. Windchill Dew Point Humidity Wind Precip. Elev Updated Type
                   

Watches & Warnings

There are currently no watches in effect.